createdAt,value
2022-08-23T00:01:33.981Z,101078.94
2022-08-23T00:04:05.665Z,101079.38
2022-08-23T00:06:32.016Z,101072.53
2022-08-23T00:08:58.493Z,101069.22
2022-08-23T00:11:29.567Z,101074.78
2022-08-23T00:13:56.456Z,101076.44
2022-08-23T00:16:24.146Z,101082.22
2022-08-23T00:18:50.504Z,101075.53
2022-08-23T00:21:17.022Z,101077.41
2022-08-23T00:23:43.327Z,101074.91
2022-08-23T00:26:09.990Z,101074.03
2022-08-23T00:28:36.330Z,101070.94
2022-08-23T00:31:03.287Z,101077.72
2022-08-23T00:33:30.946Z,101071.50
2022-08-23T00:35:57.256Z,101065.94
2022-08-23T00:38:33.781Z,101066.50
2022-08-23T00:41:02.176Z,101062.56
2022-08-23T00:43:30.442Z,101068.34
2022-08-23T00:46:02.500Z,101065.84
2022-08-23T00:48:29.478Z,101073.47
2022-08-23T00:51:01.119Z,101072.63
2022-08-23T00:53:28.958Z,101066.16
2022-08-23T00:55:57.933Z,101067.16
2022-08-23T00:58:24.315Z,101068.56
2022-08-23T01:00:52.208Z,101069.78
2022-08-23T01:03:19.105Z,101072.00
2022-08-23T01:05:50.964Z,101064.78
2022-08-23T01:08:19.684Z,101067.06
2022-08-23T01:10:49.535Z,101075.84
2022-08-23T01:13:18.129Z,101079.78
2022-08-23T01:15:46.443Z,101082.66
2022-08-23T01:18:14.915Z,101087.41
2022-08-23T01:20:43.112Z,101087.78
2022-08-23T01:23:19.447Z,101080.94
2022-08-23T01:25:45.794Z,101083.19
2022-08-23T01:28:12.095Z,101086.91
2022-08-23T01:30:40.725Z,101080.25
2022-08-23T01:33:07.296Z,101089.31
2022-08-23T01:35:36.270Z,101083.97
2022-08-23T01:38:02.679Z,101086.41
2022-08-23T01:40:30.498Z,101081.41
2022-08-23T01:42:56.826Z,101081.38
2022-08-23T01:45:23.373Z,101084.63
2022-08-23T01:47:49.686Z,101082.97
2022-08-23T01:50:16.070Z,101080.84
2022-08-23T01:52:46.565Z,101089.13
2022-08-23T01:55:14.041Z,101084.13
2022-08-23T01:57:43.062Z,101085.34
2022-08-23T02:00:15.075Z,101086.34
2022-08-23T02:02:41.399Z,101086.72
2022-08-23T02:05:08.262Z,101089.41
2022-08-23T02:07:34.711Z,101091.66
2022-08-23T02:10:01.294Z,101089.72
2022-08-23T02:12:29.176Z,101091.16
2022-08-23T02:14:56.831Z,101087.19
2022-08-23T02:17:23.145Z,101088.19
2022-08-23T02:19:49.464Z,101081.34
2022-08-23T02:22:15.790Z,101084.25
2022-08-23T02:24:43.486Z,101073.53
2022-08-23T02:27:10.539Z,101076.81
2022-08-23T02:29:39.454Z,101074.78
2022-08-23T02:32:08.016Z,101082.84
2022-08-23T02:34:36.056Z,101087.19
2022-08-23T02:37:02.520Z,101082.19
2022-08-23T02:39:29.063Z,101073.72
2022-08-23T02:41:55.568Z,101088.34
2022-08-23T02:44:21.942Z,101076.50
2022-08-23T02:46:48.265Z,101081.03
2022-08-23T02:49:16.736Z,101077.72
2022-08-23T02:51:43.525Z,101081.44
2022-08-23T02:54:09.861Z,101087.50
2022-08-23T02:56:36.370Z,101086.66
2022-08-23T02:59:03.131Z,101095.56
2022-08-23T03:01:30.499Z,101096.38
2022-08-23T03:03:57.325Z,101096.38
2022-08-23T03:06:26.441Z,101091.84
2022-08-23T03:08:53.071Z,101093.88
2022-08-23T03:11:19.968Z,101093.44
2022-08-23T03:13:46.291Z,101102.34
2022-08-23T03:16:13.025Z,101105.84
2022-08-23T03:18:39.796Z,101109.34
2022-08-23T03:21:06.855Z,101103.16
2022-08-23T03:23:35.695Z,101099.84
2022-08-23T03:26:02.911Z,101100.00
2022-08-23T03:28:29.670Z,101105.09
2022-08-23T03:30:56.078Z,101107.34
2022-08-23T03:33:22.979Z,101104.19
2022-08-23T03:35:49.823Z,101111.16
2022-08-23T03:38:16.785Z,101109.66
2022-08-23T03:40:44.658Z,101116.69
2022-08-23T03:43:11.098Z,101114.63
2022-08-23T03:45:37.838Z,101112.59
2022-08-23T03:48:04.535Z,101109.38
2022-08-23T03:50:30.850Z,101111.88
2022-08-23T03:52:57.178Z,101117.25
2022-08-23T03:55:23.497Z,101122.59
2022-08-23T03:57:51.163Z,101126.94
2022-08-23T04:00:20.608Z,101117.06
2022-08-23T04:02:48.797Z,101122.84
2022-08-23T04:05:15.479Z,101122.84
2022-08-23T04:07:41.890Z,101124.34
2022-08-23T04:10:09.202Z,101126.84
2022-08-23T04:12:35.855Z,101128.31
2022-08-23T04:15:03.775Z,101137.00
2022-08-23T04:17:32.410Z,101129.78
2022-08-23T04:19:59.042Z,101137.63
2022-08-23T04:22:25.351Z,101136.63
2022-08-23T04:24:51.673Z,101139.97
2022-08-23T04:27:18.002Z,101138.13
2022-08-23T04:29:44.319Z,101142.28
2022-08-23T04:32:12.096Z,101135.72
2022-08-23T04:34:39.366Z,101140.69
2022-08-23T04:37:09.328Z,101131.81
2022-08-23T04:39:36.030Z,101140.31
2022-08-23T04:42:13.126Z,101139.31
2022-08-23T04:44:41.022Z,101141.81
2022-08-23T04:47:07.315Z,101147.81
2022-08-23T04:49:35.103Z,101156.47
2022-08-23T04:52:01.442Z,101163.16
2022-08-23T04:54:27.782Z,101170.00
2022-08-23T04:56:54.106Z,101171.66
2022-08-23T04:59:20.582Z,101169.41
2022-08-23T05:01:46.916Z,101169.88
2022-08-23T05:04:13.250Z,101170.34
2022-08-23T05:06:40.936Z,101166.44
2022-08-23T05:09:07.352Z,101164.00
2022-08-23T05:11:33.832Z,101176.69
2022-08-23T05:14:00.217Z,101174.63
2022-08-23T05:16:26.552Z,101178.41
2022-08-23T05:18:52.935Z,101174.09
2022-08-23T05:21:20.255Z,101173.53
2022-08-23T05:23:50.886Z,101180.00
2022-08-23T05:26:21.223Z,101191.38
2022-08-23T05:28:48.549Z,101180.91
2022-08-23T05:31:16.127Z,101188.56
2022-08-23T05:33:42.899Z,101189.84
2022-08-23T05:36:10.312Z,101191.13
2022-08-23T05:38:36.635Z,101192.38
2022-08-23T05:41:05.375Z,101193.69
2022-08-23T05:43:33.531Z,101195.59
2022-08-23T05:46:01.671Z,101203.75
2022-08-23T05:48:30.069Z,101203.13
2022-08-23T05:50:56.383Z,101209.59
2022-08-23T05:53:22.710Z,101214.41
2022-08-23T05:55:49.043Z,101213.81
2022-08-23T05:58:16.696Z,101217.97
2022-08-23T06:00:43.058Z,101221.31
2022-08-23T06:03:09.390Z,101224.63
2022-08-23T06:05:38.332Z,101226.06
2022-08-23T06:08:04.659Z,101236.25
2022-08-23T06:10:30.966Z,101231.09
2022-08-23T06:12:57.254Z,101233.41
2022-08-23T06:15:24.929Z,101235.06
2022-08-23T06:17:51.235Z,101230.34
2022-08-23T06:20:17.665Z,101233.03
2022-08-23T06:22:44.135Z,101234.69
2022-08-23T06:25:10.454Z,101234.88
2022-08-23T06:27:36.781Z,101226.00
2022-08-23T06:30:03.208Z,101227.84
2022-08-23T06:32:30.949Z,101226.44
2022-08-23T06:35:33.115Z,101230.00
2022-08-23T06:37:43.610Z,101227.56
2022-08-23T06:40:10.242Z,101228.22
2022-08-23T06:42:38.984Z,101226.84
2022-08-23T06:45:05.960Z,101223.63
2022-08-23T06:47:33.604Z,101219.53
2022-08-23T06:49:59.910Z,101222.66
2022-08-23T06:52:26.711Z,101227.25
2022-08-23T06:54:53.255Z,101228.31
2022-08-23T06:57:19.670Z,101233.06
2022-08-23T06:59:45.986Z,101231.06
2022-08-23T07:02:12.875Z,101232.72
2022-08-23T07:04:41.058Z,101236.69
2022-08-23T07:07:11.354Z,101232.56
2022-08-23T07:09:38.116Z,101245.63
2022-08-23T07:12:04.544Z,101241.56
2022-08-23T07:14:30.936Z,101245.72
2022-08-23T07:16:58.654Z,101240.91
2022-08-23T07:19:29.271Z,101238.84
2022-08-23T07:21:57.494Z,101240.50
2022-08-23T07:24:23.966Z,101246.94
2022-08-23T07:26:50.805Z,101243.59
2022-08-23T07:29:17.174Z,101245.06
2022-08-23T07:31:44.945Z,101248.34
2022-08-23T07:34:11.295Z,101256.63
2022-08-23T07:36:39.675Z,101251.66
2022-08-23T07:39:07.799Z,101259.31
2022-08-23T07:41:35.243Z,101271.75
2022-08-23T07:44:02.868Z,101271.38
2022-08-23T07:46:29.980Z,101272.84
2022-08-23T07:48:56.979Z,101272.22
2022-08-23T07:51:23.511Z,101282.41
2022-08-23T07:53:49.844Z,101275.16
2022-08-23T07:56:18.286Z,101281.41
2022-08-23T07:58:44.671Z,101282.22
2022-08-23T08:01:12.332Z,101279.94
2022-08-23T08:03:38.987Z,101280.56
2022-08-23T08:06:06.824Z,101284.72
2022-08-23T08:08:33.180Z,101286.19
2022-08-23T08:10:59.499Z,101285.56
2022-08-23T08:13:27.201Z,101273.09
2022-08-23T08:15:53.565Z,101288.03
2022-08-23T08:18:19.891Z,101287.59
2022-08-23T08:20:46.227Z,101293.34
2022-08-23T08:23:12.544Z,101290.75
2022-08-23T08:25:38.851Z,101299.88
2022-08-23T08:28:05.201Z,101292.09
2022-08-23T08:30:32.860Z,101287.22
2022-08-23T08:32:59.329Z,101290.84
2022-08-23T08:35:25.715Z,101298.41
2022-08-23T08:37:52.162Z,101301.28
2022-08-23T08:40:24.648Z,101296.41
2022-08-23T08:42:59.678Z,101297.78
2022-08-23T08:45:27.280Z,101302.28
2022-08-23T08:47:59.108Z,101297.66
2022-08-23T08:50:26.759Z,101294.44
2022-08-23T08:52:56.827Z,101297.69
2022-08-23T08:55:25.070Z,101292.22
2022-08-23T08:57:52.066Z,101294.03
2022-08-23T09:00:20.198Z,101298.72
2022-08-23T09:02:46.539Z,101297.59
2022-08-23T09:05:15.297Z,101296.47
2022-08-23T09:07:46.611Z,101301.19
2022-08-23T09:10:21.097Z,101302.63
2022-08-23T09:12:51.075Z,101300.88
2022-08-23T09:15:24.903Z,101302.03
2022-08-23T09:17:52.611Z,101305.31
2022-08-23T09:20:21.655Z,101304.22
2022-08-23T09:22:49.369Z,101308.06
2022-08-23T09:25:15.686Z,101304.44
2022-08-23T09:27:42.785Z,101307.41
2022-08-23T09:30:10.486Z,101316.97
2022-08-23T09:32:37.826Z,101308.97
2022-08-23T09:35:12.286Z,101307.34
2022-08-23T09:37:48.327Z,101309.13
2022-08-23T09:40:16.439Z,101310.31
2022-08-23T09:42:43.282Z,101306.53
2022-08-23T09:45:26.599Z,101305.19
2022-08-23T09:47:53.083Z,101306.03
2022-08-23T09:50:23.925Z,101300.56
2022-08-23T09:52:54.704Z,101301.59
2022-08-23T09:55:26.404Z,101296.69
2022-08-23T09:57:53.063Z,101293.09
2022-08-23T10:00:22.466Z,101290.81
2022-08-23T10:02:48.849Z,101297.63
2022-08-23T10:05:17.611Z,101290.59
2022-08-23T10:07:44.918Z,101292.72
2022-08-23T10:10:17.391Z,101293.38
2022-08-23T10:12:43.711Z,101289.91
2022-08-23T10:15:10.272Z,101285.59
2022-08-23T10:17:39.932Z,101287.91
2022-08-23T10:20:15.414Z,101281.25
2022-08-23T10:22:43.699Z,101290.63
2022-08-23T10:25:13.503Z,101286.69
2022-08-23T10:27:44.859Z,101285.19
2022-08-23T10:30:12.397Z,101276.03
2022-08-23T10:32:45.337Z,101277.09
2022-08-23T10:35:29.381Z,101284.06
2022-08-23T10:38:03.583Z,101280.31
2022-08-23T10:40:34.008Z,101281.38
2022-08-23T10:43:08.167Z,101273.91
2022-08-23T10:45:36.220Z,101271.00
2022-08-23T10:48:14.191Z,101277.41
2022-08-23T10:50:43.151Z,101271.84
2022-08-23T10:53:11.910Z,101273.03
2022-08-23T10:55:40.234Z,101274.19
2022-08-23T10:58:11.356Z,101268.84
2022-08-23T11:00:37.703Z,101269.53
2022-08-23T11:03:10.495Z,101269.28
2022-08-23T11:05:37.433Z,101258.66
2022-08-23T11:08:05.251Z,101262.50
2022-08-23T11:10:33.107Z,101271.22
2022-08-23T11:13:01.538Z,101267.69
2022-08-23T11:15:32.326Z,101271.19
2022-08-23T11:18:00.848Z,101268.06
2022-08-23T11:20:45.909Z,101271.16
2022-08-23T11:23:13.674Z,101265.69
2022-08-23T11:25:41.676Z,101269.25
2022-08-23T11:28:22.903Z,101265.81
2022-08-23T11:30:51.447Z,101257.91
2022-08-23T11:33:21.260Z,101263.53
2022-08-23T11:35:48.841Z,101265.00
2022-08-23T11:38:22.424Z,101257.19
2022-08-23T11:40:56.707Z,101253.09
2022-08-23T11:43:25.370Z,101258.66
2022-08-23T11:45:53.078Z,101260.41
2022-08-23T11:48:23.048Z,101265.78
2022-08-23T11:51:07.376Z,101255.81
2022-08-23T11:53:49.970Z,101258.19
2022-08-23T11:56:26.634Z,101257.19
2022-08-23T11:59:03.515Z,101251.81
2022-08-23T12:01:37.535Z,101249.88
2022-08-23T12:04:05.348Z,101252.63
2022-08-23T12:06:43.379Z,101253.47
2022-08-23T12:09:35.616Z,101255.66
2022-08-23T12:12:24.801Z,101250.72
2022-08-23T12:14:53.510Z,101249.06
2022-08-23T12:17:40.361Z,101255.63
2022-08-23T12:20:16.792Z,101246.56
2022-08-23T12:22:55.226Z,101262.91
2022-08-23T12:25:22.006Z,101254.66
2022-08-23T12:27:50.001Z,101255.19
2022-08-23T12:30:18.328Z,101250.13
2022-08-23T12:32:49.743Z,101252.16
2022-08-23T12:35:27.912Z,101252.09
2022-08-23T12:37:59.566Z,101249.53
2022-08-23T12:40:27.894Z,101255.56
2022-08-23T12:43:02.298Z,101258.44
2022-08-23T12:45:35.793Z,101257.44
2022-08-23T12:48:02.490Z,101250.56
2022-08-23T12:50:32.581Z,101255.72
2022-08-23T12:53:00.788Z,101252.91
2022-08-23T12:55:30.254Z,101251.16
2022-08-23T12:57:56.596Z,101257.06
2022-08-23T13:00:24.620Z,101247.00
2022-08-23T13:02:55.296Z,101251.06
2022-08-23T13:05:26.982Z,101245.59
2022-08-23T13:07:54.671Z,101249.97
2022-08-23T13:10:21.126Z,101247.09
2022-08-23T13:12:47.611Z,101242.31
2022-08-23T13:15:31.789Z,101252.41
2022-08-23T13:17:59.338Z,101253.50
2022-08-23T13:20:25.764Z,101259.53
2022-08-23T13:22:58.921Z,101258.97
2022-08-23T13:25:29.839Z,101250.97
2022-08-23T13:27:58.777Z,101252.63
2022-08-23T13:30:25.865Z,101257.81
2022-08-23T13:32:53.096Z,101248.56
2022-08-23T13:35:29.418Z,101249.88
2022-08-23T13:37:59.525Z,101250.97
2022-08-23T13:40:27.480Z,101249.56
2022-08-23T13:42:57.165Z,101250.34
2022-08-23T13:45:25.751Z,101247.31
2022-08-23T13:47:55.327Z,101252.25
2022-08-23T13:50:23.055Z,101243.28
2022-08-23T13:53:13.410Z,101250.69
2022-08-23T13:55:41.238Z,101251.53
2022-08-23T13:58:09.897Z,101249.88
2022-08-23T14:00:36.514Z,101248.25
2022-08-23T14:03:03.180Z,101245.75
2022-08-23T14:05:29.641Z,101243.53
2022-08-23T14:07:59.903Z,101243.75
2022-08-23T14:10:26.986Z,101239.06
2022-08-23T14:12:54.679Z,101234.97
2022-08-23T14:15:54.238Z,101241.78
2022-08-23T14:18:08.043Z,101241.59
2022-08-23T14:20:44.034Z,101242.72
2022-08-23T14:23:12.643Z,101240.03
2022-08-23T14:25:39.120Z,101231.06
2022-08-23T14:28:06.836Z,101229.78
2022-08-23T14:30:34.468Z,101229.00
2022-08-23T14:33:01.278Z,101226.28
2022-08-23T14:35:27.786Z,101226.00
2022-08-23T14:38:09.377Z,101231.47
2022-08-23T14:40:36.148Z,101225.75
2022-08-23T14:43:04.226Z,101234.53
2022-08-23T14:45:32.453Z,101231.78
2022-08-23T14:47:58.851Z,101231.22
2022-08-23T14:50:25.204Z,101230.31
2022-08-23T14:52:54.252Z,101223.69
2022-08-23T14:55:24.719Z,101222.88
2022-08-23T14:57:51.370Z,101228.06
2022-08-23T15:00:17.787Z,101219.56
2022-08-23T15:02:46.651Z,101212.78
2022-08-23T15:05:13.347Z,101219.31
2022-08-23T15:07:39.670Z,101216.84
2022-08-23T15:10:07.142Z,101220.91
2022-08-23T15:15:21.967Z,101214.81
2022-08-23T15:17:51.896Z,101222.44
2022-08-23T15:20:18.836Z,101214.50
2022-08-23T15:22:52.368Z,101210.97
2022-08-23T15:25:22.618Z,101206.56
2022-08-23T15:27:50.211Z,101209.31
2022-08-23T15:30:16.959Z,101210.94
2022-08-23T15:32:52.099Z,101213.94
2022-08-23T15:35:20.958Z,101214.72
2022-08-23T15:37:47.595Z,101209.53
2022-08-23T15:40:14.171Z,101214.72
2022-08-23T15:42:40.631Z,101213.13
2022-08-23T15:45:07.628Z,101213.38
2022-08-23T15:47:40.573Z,101206.00
2022-08-23T15:50:07.291Z,101205.69
2022-08-23T15:52:34.930Z,101198.91
2022-08-23T15:55:01.299Z,101210.34
2022-08-23T15:57:28.264Z,101207.91
2022-08-23T15:59:54.783Z,101222.38
2022-08-23T16:02:21.115Z,101207.59
2022-08-23T16:04:47.464Z,101208.66
2022-08-23T16:07:15.785Z,101219.31
2022-08-23T16:09:43.746Z,101211.31
2022-08-23T16:12:10.051Z,101213.19
2022-08-23T16:14:36.611Z,101210.09
2022-08-23T16:17:03.280Z,101212.25
2022-08-23T16:19:29.691Z,101211.41
2022-08-23T16:21:56.027Z,101213.81
2022-08-23T16:24:24.554Z,101214.06
2022-08-23T16:26:52.508Z,101212.69
2022-08-23T16:29:19.643Z,101212.41
2022-08-23T16:31:46.467Z,101216.25
2022-08-23T16:34:14.941Z,101211.84
2022-08-23T16:36:43.511Z,101208.06
2022-08-23T16:39:10.311Z,101211.72
2022-08-23T16:41:36.625Z,101214.47
2022-08-23T16:44:04.804Z,101213.59
2022-08-23T16:46:31.162Z,101211.34
2022-08-23T16:48:57.531Z,101209.94
2022-08-23T16:51:24.121Z,101213.44
2022-08-23T16:54:00.579Z,101209.03
2022-08-23T16:56:29.683Z,101207.13
2022-08-23T16:58:56.011Z,101206.56
2022-08-23T17:01:23.859Z,101209.88
2022-08-23T17:03:50.308Z,101213.03
2022-08-23T17:06:16.630Z,101208.28
2022-08-23T17:08:42.939Z,101215.63
2022-08-23T17:11:10.554Z,101208.22
2022-08-23T17:13:36.898Z,101217.19
2022-08-23T17:16:03.473Z,101210.00
2022-08-23T17:18:31.147Z,101210.81
2022-08-23T17:20:57.500Z,101213.22
2022-08-23T17:23:23.844Z,101210.16
2022-08-23T17:25:50.188Z,101214.81
2022-08-23T17:28:17.216Z,101217.78
2022-08-23T17:30:43.784Z,101208.78
2022-08-23T17:33:10.086Z,101221.59
2022-08-23T17:35:37.770Z,101218.31
2022-08-23T17:38:05.320Z,101222.38
2022-08-23T17:40:33.488Z,101222.88
2022-08-23T17:43:00.253Z,101231.56
2022-08-23T17:45:27.400Z,101235.66
2022-08-23T17:47:53.959Z,101238.06
2022-08-23T17:50:20.849Z,101233.34
2022-08-23T17:52:48.500Z,101230.94
2022-08-23T17:55:14.874Z,101241.09
2022-08-23T17:57:41.184Z,101244.28
2022-08-23T18:00:07.975Z,101239.41
2022-08-23T18:02:34.332Z,101246.44
2022-08-23T18:05:00.684Z,101251.13
2022-08-23T18:07:27.162Z,101238.94
2022-08-23T18:09:54.815Z,101252.16
2022-08-23T18:12:21.159Z,101253.38
2022-08-23T18:14:47.575Z,101256.28
2022-08-23T18:17:13.902Z,101258.50
2022-08-23T18:19:40.241Z,101253.75
2022-08-23T18:22:06.591Z,101262.34
2022-08-23T18:24:32.920Z,101264.94
2022-08-23T18:27:00.701Z,101264.56
2022-08-23T18:29:27.558Z,101263.59
2022-08-23T18:31:53.963Z,101272.06
2022-08-23T18:34:20.767Z,101270.25
2022-08-23T18:36:47.139Z,101275.19
2022-08-23T18:39:14.225Z,101284.28
2022-08-23T18:41:40.948Z,101285.16
2022-08-23T18:44:09.011Z,101284.44
2022-08-23T18:46:38.911Z,101290.44
2022-08-23T18:49:06.266Z,101289.72
2022-08-23T18:51:32.583Z,101297.56
2022-08-23T18:53:59.378Z,101305.75
2022-08-23T18:56:25.690Z,101302.59
2022-08-23T18:58:52.323Z,101310.78
2022-08-23T19:01:24.267Z,101310.28
2022-08-23T19:03:51.098Z,101313.03
2022-08-23T19:06:17.539Z,101324.50
2022-08-23T19:08:43.897Z,101322.94
2022-08-23T19:11:10.572Z,101324.38
2022-08-23T19:13:37.010Z,101328.03
2022-08-23T19:16:03.541Z,101323.75
2022-08-23T19:18:31.234Z,101334.97
2022-08-23T19:20:57.542Z,101323.84
2022-08-23T19:23:23.863Z,101333.59
2022-08-23T19:25:50.226Z,101333.94
2022-08-23T19:28:16.563Z,101337.81
2022-08-23T19:30:43.003Z,101338.75
2022-08-23T19:33:09.348Z,101342.38
2022-08-23T19:35:37.033Z,101342.25
2022-08-23T19:38:03.379Z,101345.28
2022-08-23T19:40:29.804Z,101341.81
2022-08-23T19:42:56.149Z,101338.97
2022-08-23T19:45:22.497Z,101340.69
2022-08-23T19:47:48.859Z,101351.41
2022-08-23T19:50:15.179Z,101351.25
2022-08-23T19:52:51.590Z,101353.22
2022-08-23T19:55:18.018Z,101354.94
2022-08-23T19:57:44.347Z,101366.69
2022-08-23T20:00:15.706Z,101367.59
2022-08-23T20:02:44.983Z,101367.06
2022-08-23T20:05:11.283Z,101359.25
2022-08-23T20:07:37.670Z,101367.41
2022-08-23T20:10:06.724Z,101366.22
2022-08-23T20:12:33.123Z,101366.66
2022-08-23T20:14:59.439Z,101365.47
2022-08-23T20:17:25.906Z,101365.88
2022-08-23T20:19:52.371Z,101365.72
2022-08-23T20:22:18.904Z,101369.31
2022-08-23T20:24:53.349Z,101378.09
2022-08-23T20:27:30.271Z,101375.47
2022-08-23T20:29:57.687Z,101376.31
2022-08-23T20:32:24.091Z,101389.50
2022-08-23T20:34:50.426Z,101389.09
2022-08-23T20:37:16.755Z,101383.28
2022-08-23T20:39:43.127Z,101383.13
2022-08-23T20:42:09.625Z,101393.78
2022-08-23T20:44:37.350Z,101393.16
2022-08-23T20:47:03.851Z,101388.81
2022-08-23T20:49:30.276Z,101388.75
2022-08-23T20:51:56.610Z,101387.94
2022-08-23T20:54:22.976Z,101390.63
2022-08-23T20:56:50.199Z,101386.50
2022-08-23T20:59:16.529Z,101387.75
2022-08-23T21:01:44.356Z,101393.00
2022-08-23T21:04:10.739Z,101390.50
2022-08-23T21:06:38.235Z,101400.50
2022-08-23T21:09:04.642Z,101403.41
2022-08-23T21:11:30.949Z,101401.06
2022-08-23T21:13:57.331Z,101399.66
2022-08-23T21:16:23.931Z,101397.38
2022-08-23T21:18:51.590Z,101408.00
2022-08-23T21:21:21.754Z,101397.25
2022-08-23T21:23:48.356Z,101401.41
2022-08-23T21:26:14.678Z,101405.59
2022-08-23T21:28:41.171Z,101397.69
2022-08-23T21:31:07.867Z,101403.72
2022-08-23T21:33:39.305Z,101404.63
2022-08-23T21:36:08.471Z,101400.88
2022-08-23T21:38:34.915Z,101404.25
2022-08-23T21:41:02.976Z,101405.28
2022-08-23T21:43:29.670Z,101407.78
2022-08-23T21:45:56.039Z,101403.00
2022-08-23T21:48:22.910Z,101406.81
2022-08-23T21:50:49.223Z,101404.94
2022-08-23T21:53:17.328Z,101402.66
2022-08-23T21:55:44.046Z,101404.56
2022-08-23T21:58:12.527Z,101403.28
2022-08-23T22:00:39.559Z,101402.25
2022-08-23T22:03:06.178Z,101407.03
2022-08-23T22:05:32.702Z,101412.06
2022-08-23T22:07:59.002Z,101407.47
2022-08-23T22:10:26.643Z,101405.66
2022-08-23T22:12:52.974Z,101401.06
2022-08-23T22:15:19.282Z,101402.56
2022-08-23T22:17:45.595Z,101409.63
2022-08-23T22:20:11.911Z,101409.47
2022-08-23T22:22:38.310Z,101407.34
2022-08-23T22:25:05.152Z,101406.94
2022-08-23T22:27:32.819Z,101407.38
2022-08-23T22:29:59.143Z,101410.69
2022-08-23T22:32:25.470Z,101416.13
2022-08-23T22:34:51.776Z,101412.00
2022-08-23T22:37:18.095Z,101412.81
2022-08-23T22:39:44.419Z,101417.19
2022-08-23T22:42:10.782Z,101412.41
2022-08-23T22:44:38.418Z,101416.53
2022-08-23T22:47:04.902Z,101419.69
2022-08-23T22:49:31.229Z,101423.41
2022-08-23T22:51:57.566Z,101417.59
2022-08-23T22:54:23.929Z,101412.81
2022-08-23T22:56:51.042Z,101413.44
2022-08-23T22:59:18.146Z,101416.75
2022-08-23T23:01:47.718Z,101415.31
2022-08-23T23:04:14.682Z,101414.25
2022-08-23T23:06:41.070Z,101415.28
2022-08-23T23:09:08.242Z,101416.69
2022-08-23T23:11:34.997Z,101412.97
2022-08-23T23:14:01.578Z,101418.59
2022-08-23T23:16:28.731Z,101410.72
2022-08-23T23:18:56.944Z,101414.63
2022-08-23T23:21:23.259Z,101410.47
2022-08-23T23:23:49.580Z,101410.47
2022-08-23T23:26:15.883Z,101409.22
2022-08-23T23:28:42.198Z,101417.94
2022-08-23T23:31:08.935Z,101412.94
2022-08-23T23:33:35.258Z,101413.34
2022-08-23T23:36:03.285Z,101405.25
2022-08-23T23:38:29.623Z,101407.97
2022-08-23T23:40:55.927Z,101394.88
2022-08-23T23:43:22.231Z,101401.94
2022-08-23T23:45:48.585Z,101405.47
2022-08-23T23:48:15.017Z,101406.91
2022-08-23T23:50:45.335Z,101400.09
2022-08-23T23:53:14.566Z,101404.84
2022-08-23T23:55:41.026Z,101410.66
2022-08-23T23:58:07.339Z,101404.38
